createdAt,value
2018-09-29T00:01:58.793Z,101401.42
2018-09-29T00:07:02.122Z,101408.30
2018-09-29T00:12:05.417Z,101404.23
2018-09-29T00:17:08.844Z,101420.39
2018-09-29T00:22:12.185Z,101426.67
2018-09-29T00:27:15.479Z,101430.58
2018-09-29T00:32:18.757Z,101429.40
2018-09-29T00:37:22.169Z,101431.13
2018-09-29T00:42:25.502Z,101434.55
2018-09-29T00:47:28.810Z,101435.49
2018-09-29T00:52:32.257Z,101427.55
2018-09-29T00:57:35.589Z,101426.00
2018-09-29T01:02:38.966Z,101432.12
2018-09-29T01:07:42.348Z,101439.24
2018-09-29T01:12:45.674Z,101435.42
2018-09-29T01:17:49.040Z,101450.59
2018-09-29T01:22:52.304Z,101441.86
2018-09-29T01:27:55.780Z,101442.20
2018-09-29T01:32:59.076Z,101450.19
2018-09-29T01:38:02.504Z,101453.88
2018-09-29T01:43:05.916Z,101453.61
2018-09-29T01:48:09.263Z,101448.73
2018-09-29T01:53:12.563Z,101454.47
2018-09-29T01:58:15.893Z,101457.52
2018-09-29T02:03:19.325Z,101454.86
2018-09-29T02:08:22.715Z,101453.55
2018-09-29T02:13:26.102Z,101445.69
2018-09-29T02:18:29.755Z,101449.22
2018-09-29T02:23:33.162Z,101445.74
2018-09-29T02:28:36.535Z,101437.73
2018-09-29T02:33:39.860Z,101436.61
2018-09-29T02:38:43.165Z,101451.70
2018-09-29T02:43:46.476Z,101456.89
2018-09-29T02:48:49.889Z,101460.56
2018-09-29T02:53:53.220Z,101461.20
2018-09-29T02:58:56.557Z,101460.41
2018-09-29T03:03:59.884Z,101453.63
2018-09-29T03:09:03.712Z,101448.88
2018-09-29T03:14:07.010Z,101456.02
2018-09-29T03:19:10.328Z,101457.63
2018-09-29T03:24:13.633Z,101459.33
2018-09-29T03:29:16.966Z,101465.70
2018-09-29T03:34:20.317Z,101472.09
2018-09-29T03:39:23.664Z,101481.13
2018-09-29T03:44:27.052Z,101486.80
2018-09-29T03:49:30.351Z,101498.55
2018-09-29T03:54:33.669Z,101500.73
2018-09-29T03:59:37.040Z,101501.61
2018-09-29T04:04:40.380Z,101504.17
2018-09-29T04:09:43.719Z,101503.38
2018-09-29T04:14:47.174Z,101507.50
2018-09-29T04:19:50.540Z,101513.78
2018-09-29T04:24:53.828Z,101523.88
2018-09-29T04:29:57.135Z,101513.78
2018-09-29T04:35:00.461Z,101521.48
2018-09-29T04:40:03.950Z,101521.52
2018-09-29T04:45:07.282Z,101528.97
2018-09-29T04:50:10.640Z,101533.89
2018-09-29T04:55:13.941Z,101537.17
2018-09-29T05:00:17.496Z,101533.45
2018-09-29T05:05:20.817Z,101538.01
2018-09-29T05:10:24.157Z,101544.98
2018-09-29T05:15:27.520Z,101553.02
2018-09-29T05:20:30.880Z,101562.97
2018-09-29T05:25:34.201Z,101564.44
2018-09-29T05:30:37.608Z,101573.19
2018-09-29T05:35:40.944Z,101579.40
2018-09-29T05:40:44.416Z,101575.53
2018-09-29T05:45:48.622Z,101583.08
2018-09-29T05:50:52.033Z,101579.82
2018-09-29T05:55:55.345Z,101582.94
2018-09-29T06:00:58.655Z,101588.12
2018-09-29T06:06:02.140Z,101591.55
2018-09-29T06:11:05.526Z,101591.43
2018-09-29T06:16:09.652Z,101589.33
2018-09-29T06:21:12.977Z,101598.23
2018-09-29T06:26:16.301Z,101594.28
2018-09-29T06:31:19.668Z,101591.91
2018-09-29T06:36:23.038Z,101593.35
2018-09-29T06:41:26.398Z,101600.02
2018-09-29T06:46:29.741Z,101612.80
2018-09-29T06:51:33.298Z,101610.47
2018-09-29T06:56:36.604Z,101619.72
2018-09-29T07:01:39.921Z,101626.27
2018-09-29T07:06:43.309Z,101628.03
2018-09-29T07:11:46.628Z,101629.70
2018-09-29T07:16:49.960Z,101621.50
2018-09-29T07:21:53.459Z,101626.84
2018-09-29T07:26:56.707Z,101641.58
2018-09-29T07:32:00.029Z,101627.42
2018-09-29T07:37:03.509Z,101625.81
2018-09-29T07:42:07.141Z,101624.23
2018-09-29T07:47:10.485Z,101630.48
2018-09-29T07:52:13.800Z,101632.30
2018-09-29T07:57:17.139Z,101626.63
2018-09-29T08:02:20.473Z,101637.08
2018-09-29T08:07:23.801Z,101634.61
2018-09-29T08:12:27.191Z,101636.75
2018-09-29T08:17:30.533Z,101632.75
2018-09-29T08:22:33.841Z,101626.91
2018-09-29T08:27:37.151Z,101628.14
2018-09-29T08:32:40.473Z,101636.56
2018-09-29T08:37:43.825Z,101637.30
2018-09-29T08:42:47.124Z,101637.39
2018-09-29T08:47:50.432Z,101633.77
2018-09-29T08:52:53.736Z,101633.50
2018-09-29T08:57:57.273Z,101645.27
2018-09-29T09:03:00.624Z,101639.95
2018-09-29T09:08:04.181Z,101642.68
2018-09-29T09:13:07.463Z,101642.12
2018-09-29T09:18:10.805Z,101642.83
2018-09-29T09:23:14.128Z,101640.41
2018-09-29T09:28:17.436Z,101642.95
2018-09-29T09:33:20.776Z,101634.21
2018-09-29T09:38:24.054Z,101635.08
2018-09-29T09:43:27.371Z,101627.92
2018-09-29T09:48:30.680Z,101628.09
2018-09-29T09:53:34.042Z,101619.02
2018-09-29T09:58:37.876Z,101630.34
2018-09-29T10:03:41.193Z,101628.38
2018-09-29T10:08:44.477Z,101628.67
2018-09-29T10:13:48.064Z,101618.41
2018-09-29T10:18:51.357Z,101608.19
2018-09-29T10:23:54.665Z,101604.22
2018-09-29T10:28:58.085Z,101605.33
2018-09-29T10:34:01.353Z,101607.13
2018-09-29T10:39:07.928Z,101600.84
2018-09-29T10:44:11.928Z,101598.94
2018-09-29T10:49:15.180Z,101590.67
2018-09-29T10:54:18.499Z,101582.81
2018-09-29T10:59:21.794Z,101570.92
2018-09-29T11:04:25.287Z,101565.53
2018-09-29T11:09:28.572Z,101564.77
2018-09-29T11:14:31.957Z,101548.16
2018-09-29T11:19:35.198Z,101534.98
2018-09-29T11:24:38.480Z,101518.06
2018-09-29T11:29:41.890Z,101514.38
2018-09-29T11:34:45.178Z,101507.31
2018-09-29T11:39:48.461Z,101504.94
2018-09-29T11:44:51.894Z,101500.12
2018-09-29T11:49:55.161Z,101494.52
2018-09-29T11:54:58.443Z,101498.25
2018-09-29T12:00:01.918Z,101503.45
2018-09-29T12:05:05.424Z,101493.18
2018-09-29T12:10:08.692Z,101483.64
2018-09-29T12:15:12.053Z,101467.03
2018-09-29T12:20:15.537Z,101451.33
2018-09-29T12:25:18.824Z,101444.01
2018-09-29T12:30:22.096Z,101432.65
2018-09-29T12:35:25.372Z,101431.20
2018-09-29T12:40:29.022Z,101433.73
2018-09-29T12:45:32.300Z,101420.42
2018-09-29T12:50:35.584Z,101413.63
2018-09-29T12:55:38.873Z,101410.61
2018-09-29T13:00:42.227Z,101408.39
2018-09-29T13:05:45.518Z,101400.30
2018-09-29T13:10:48.806Z,101389.26
2018-09-29T13:15:52.548Z,101392.58
2018-09-29T13:26:33.154Z,101379.22
2018-09-29T13:31:36.436Z,101376.86
2018-09-29T13:36:39.724Z,101372.66
2018-09-29T13:41:43.024Z,101363.32
2018-09-29T13:46:47.543Z,101351.75
2018-09-29T13:51:50.827Z,101349.38
2018-09-29T13:56:54.120Z,101338.81
2018-09-29T14:07:06.988Z,101324.92
2018-09-29T14:12:10.298Z,101320.78
2018-09-29T14:17:13.581Z,101326.25
2018-09-29T14:22:16.864Z,101318.91
2018-09-29T14:27:20.157Z,101309.91
2018-09-29T14:32:23.454Z,101313.67
2018-09-29T14:37:26.784Z,101299.73
2018-09-29T14:42:30.080Z,101293.27
2018-09-29T14:47:33.382Z,101291.97
2018-09-29T14:52:36.838Z,101292.72
2018-09-29T14:57:40.132Z,101288.25
2018-09-29T15:02:43.436Z,101284.81
2018-09-29T15:07:46.747Z,101282.88
2018-09-29T15:12:50.066Z,101274.63
2018-09-29T15:17:53.392Z,101264.75
2018-09-29T15:22:56.699Z,101255.28
2018-09-29T15:28:00.054Z,101251.12
2018-09-29T15:33:03.476Z,101248.81
2018-09-29T15:38:06.752Z,101243.16
2018-09-29T15:43:10.081Z,101237.55
2018-09-29T15:48:13.401Z,101228.95
2018-09-29T15:53:16.696Z,101232.91
2018-09-29T15:58:20.013Z,101231.44
2018-09-29T16:03:23.310Z,101226.59
2018-09-29T16:08:26.614Z,101222.74
2018-09-29T16:13:29.917Z,101210.91
2018-09-29T16:18:33.323Z,101216.00
2018-09-29T16:23:36.615Z,101202.50
2018-09-29T16:28:39.896Z,101195.03
2018-09-29T16:33:43.179Z,101194.37
2018-09-29T16:38:46.479Z,101190.30
2018-09-29T16:43:50.168Z,101199.96
2018-09-29T16:48:53.495Z,101193.45
2018-09-29T16:53:56.875Z,101183.03
2018-09-29T16:59:00.198Z,101197.38
2018-09-29T17:04:03.617Z,101199.73
2018-09-29T17:09:09.429Z,101207.81
2018-09-29T17:14:12.742Z,101211.60
2018-09-29T17:19:16.117Z,101203.70
2018-09-29T17:24:19.444Z,101212.78
2018-09-29T17:29:22.764Z,101218.34
2018-09-29T17:34:26.078Z,101218.92
2018-09-29T17:39:29.400Z,101223.47
2018-09-29T17:44:32.755Z,101230.45
2018-09-29T17:49:36.160Z,101230.17
2018-09-29T17:54:39.498Z,101234.34
2018-09-29T17:59:42.809Z,101229.38
2018-09-29T18:04:46.136Z,101224.55
2018-09-29T18:09:49.469Z,101225.39
2018-09-29T18:14:52.797Z,101233.22
2018-09-29T18:19:56.116Z,101240.70
2018-09-29T18:24:59.462Z,101232.06
2018-09-29T18:30:03.254Z,101231.06
2018-09-29T18:35:06.693Z,101232.03
2018-09-29T18:40:10.066Z,101233.02
2018-09-29T18:45:13.471Z,101223.17
2018-09-29T18:50:16.849Z,101217.38
2018-09-29T18:55:20.176Z,101217.36
2018-09-29T19:00:23.496Z,101219.00
2018-09-29T19:05:26.884Z,101210.36
2018-09-29T19:10:30.951Z,101210.15
2018-09-29T19:15:34.928Z,101202.47
2018-09-29T19:20:39.055Z,101202.76
2018-09-29T19:25:42.810Z,101202.76
2018-09-29T19:30:46.535Z,101192.31
2018-09-29T19:35:50.692Z,101188.80
2018-09-29T20:03:33.166Z,101178.15
2018-09-29T20:08:36.927Z,101172.64
2018-09-29T20:13:40.297Z,101167.67
2018-09-29T20:18:43.826Z,101157.69
2018-09-29T20:23:47.187Z,101151.98
2018-09-29T21:02:37.640Z,101130.05
2018-09-29T21:07:41.045Z,101119.24
2018-09-29T21:12:44.451Z,101113.28
2018-09-29T21:17:47.781Z,101111.59
2018-09-29T21:22:51.106Z,101106.08
2018-09-29T21:27:54.573Z,101100.08
2018-09-29T21:32:57.907Z,101100.19
2018-09-29T21:38:01.276Z,101097.66
2018-09-29T21:43:04.665Z,101083.42
2018-09-29T21:48:08.021Z,101079.24
2018-09-29T21:53:11.349Z,101081.05
2018-09-29T21:58:14.852Z,101069.77
2018-09-29T22:03:18.161Z,101063.96
2018-09-29T22:08:21.467Z,101063.75
2018-09-29T22:13:24.765Z,101048.03
2018-09-29T22:18:28.080Z,101037.06
2018-09-29T22:23:31.588Z,101030.99
2018-09-29T22:28:34.924Z,101017.17
2018-09-29T22:33:38.268Z,101013.08
2018-09-29T22:38:41.618Z,101002.81
2018-09-29T22:43:44.929Z,100999.66
2018-09-29T22:48:48.331Z,100995.86
2018-09-29T22:53:51.940Z,100989.44
2018-09-29T22:58:55.237Z,100979.14
2018-09-29T23:03:58.620Z,100969.37
2018-09-29T23:09:02.509Z,100966.89
2018-09-29T23:14:06.731Z,100964.91
2018-09-29T23:19:11.255Z,100959.08
2018-09-29T23:24:14.571Z,100967.52
2018-09-29T23:29:17.864Z,100957.22
2018-09-29T23:34:21.148Z,100953.25
2018-09-29T23:39:24.659Z,100949.94
2018-09-29T23:44:27.969Z,100952.42
2018-09-29T23:49:31.441Z,100943.58
2018-09-29T23:54:34.875Z,100941.26
2018-09-29T23:59:38.505Z,100937.42
